sensor_id;sensor_type;location;lat;lon;timestamp;pressure;altitude;pressure_sealevel;temperature;humidity
51603;BME280;37954;51.980;5.850;2023-04-27T00:03:30;101740.09;;;5.46;66.53
51603;BME280;37954;51.980;5.850;2023-04-27T00:07:42;101751.22;;;5.41;66.59
51603;BME280;37954;51.980;5.850;2023-04-27T00:11:54;101747.03;;;5.22;66.54
51603;BME280;37954;51.980;5.850;2023-04-27T00:16:06;101751.88;;;5.19;67.21
51603;BME280;37954;51.980;5.850;2023-04-27T00:20:18;101774.34;;;5.24;67.20
51603;BME280;37954;51.980;5.850;2023-04-27T00:24:30;101750.66;;;5.05;67.48
51603;BME280;37954;51.980;5.850;2023-04-27T00:28:42;101768.13;;;5.08;67.77
51603;BME280;37954;51.980;5.850;2023-04-27T00:32:54;101755.16;;;5.05;68.12
51603;BME280;37954;51.980;5.850;2023-04-27T00:37:05;101759.63;;;4.96;68.31
51603;BME280;37954;51.980;5.850;2023-04-27T00:41:18;101750.97;;;4.94;68.63
51603;BME280;37954;51.980;5.850;2023-04-27T00:45:31;101766.09;;;4.94;67.86
51603;BME280;37954;51.980;5.850;2023-04-27T00:49:43;101746.41;;;4.78;68.42
51603;BME280;37954;51.980;5.850;2023-04-27T00:53:59;101767.56;;;4.80;68.89
51603;BME280;37954;51.980;5.850;2023-04-27T00:58:11;101769.00;;;4.74;68.81
51603;BME280;37954;51.980;5.850;2023-04-27T01:02:23;101762.16;;;4.64;69.07
51603;BME280;37954;51.980;5.850;2023-04-27T01:06:35;101788.78;;;4.72;69.03
51603;BME280;37954;51.980;5.850;2023-04-27T01:10:47;101753.59;;;4.52;69.45
51603;BME280;37954;51.980;5.850;2023-04-27T01:15:00;101770.47;;;4.61;69.43
51603;BME280;37954;51.980;5.850;2023-04-27T01:19:12;101744.91;;;4.42;69.76
51603;BME280;37954;51.980;5.850;2023-04-27T01:23:24;101744.09;;;4.41;70.20
51603;BME280;37954;51.980;5.850;2023-04-27T01:27:36;101722.94;;;4.32;70.08
51603;BME280;37954;51.980;5.850;2023-04-27T01:31:48;101758.63;;;4.55;70.67
51603;BME280;37954;51.980;5.850;2023-04-27T01:36:00;101755.94;;;4.55;70.47
51603;BME280;37954;51.980;5.850;2023-04-27T01:40:12;101777.44;;;4.62;70.60
51603;BME280;37954;51.980;5.850;2023-04-27T01:44:24;101770.41;;;4.52;70.20
51603;BME280;37954;51.980;5.850;2023-04-27T01:48:38;101768.09;;;4.49;70.39
51603;BME280;37954;51.980;5.850;2023-04-27T01:52:50;101756.69;;;4.39;70.32
51603;BME280;37954;51.980;5.850;2023-04-27T01:57:02;101756.19;;;4.36;70.11
51603;BME280;37954;51.980;5.850;2023-04-27T02:01:14;101766.31;;;4.32;70.42
51603;BME280;37954;51.980;5.850;2023-04-27T02:05:26;101750.91;;;4.18;70.73
51603;BME280;37954;51.980;5.850;2023-04-27T02:09:38;101714.53;;;3.93;70.57
51603;BME280;37954;51.980;5.850;2023-04-27T02:13:49;101716.81;;;3.88;70.50
51603;BME280;37954;51.980;5.850;2023-04-27T02:18:02;101748.41;;;3.91;70.86
51603;BME280;37954;51.980;5.850;2023-04-27T02:22:14;101738.19;;;3.78;71.23
51603;BME280;37954;51.980;5.850;2023-04-27T02:26:26;101729.16;;;3.71;71.14
51603;BME280;37954;51.980;5.850;2023-04-27T02:30:41;101744.94;;;3.72;71.60
51603;BME280;37954;51.980;5.850;2023-04-27T02:34:53;101740.09;;;3.68;72.02
51603;BME280;37954;51.980;5.850;2023-04-27T02:39:07;101705.53;;;3.42;71.94
51603;BME280;37954;51.980;5.850;2023-04-27T02:43:21;101726.38;;;3.55;72.08
51603;BME280;37954;51.980;5.850;2023-04-27T02:47:33;101752.19;;;3.62;71.85
51603;BME280;37954;51.980;5.850;2023-04-27T02:51:45;101717.13;;;3.41;72.23
51603;BME280;37954;51.980;5.850;2023-04-27T02:55:57;101710.59;;;3.35;72.28
51603;BME280;37954;51.980;5.850;2023-04-27T03:00:10;101706.72;;;3.30;72.35
51603;BME280;37954;51.980;5.850;2023-04-27T03:04:22;101726.81;;;3.32;72.46
51603;BME280;37954;51.980;5.850;2023-04-27T03:08:34;101723.97;;;3.26;72.60
51603;BME280;37954;51.980;5.850;2023-04-27T03:12:46;101730.78;;;3.28;72.57
51603;BME280;37954;51.980;5.850;2023-04-27T03:16:57;101740.72;;;3.26;72.68
51603;BME280;37954;51.980;5.850;2023-04-27T03:21:10;101724.16;;;3.14;73.31
51603;BME280;37954;51.980;5.850;2023-04-27T03:25:22;101746.88;;;3.27;73.03
51603;BME280;37954;51.980;5.850;2023-04-27T03:29:34;101755.97;;;3.24;72.93
51603;BME280;37954;51.980;5.850;2023-04-27T03:33:46;101743.28;;;3.18;73.43
51603;BME280;37954;51.980;5.850;2023-04-27T03:37:58;101743.44;;;3.17;74.01
51603;BME280;37954;51.980;5.850;2023-04-27T03:42:10;101768.47;;;3.32;73.96
51603;BME280;37954;51.980;5.850;2023-04-27T03:46:22;101728.97;;;3.11;74.23
51603;BME280;37954;51.980;5.850;2023-04-27T03:50:34;101764.78;;;3.25;73.94
51603;BME280;37954;51.980;5.850;2023-04-27T03:54:46;101749.88;;;3.14;74.17
51603;BME280;37954;51.980;5.850;2023-04-27T03:58:58;101760.19;;;3.17;74.06
51603;BME280;37954;51.980;5.850;2023-04-27T04:03:16;101770.66;;;3.19;73.86
51603;BME280;37954;51.980;5.850;2023-04-27T04:07:28;101744.78;;;3.03;74.03
51603;BME280;37954;51.980;5.850;2023-04-27T04:11:40;101773.47;;;3.17;74.28
51603;BME280;37954;51.980;5.850;2023-04-27T04:16:03;101770.41;;;3.12;74.42
51603;BME280;37954;51.980;5.850;2023-04-27T04:20:15;101757.00;;;3.13;74.46
51603;BME280;37954;51.980;5.850;2023-04-27T04:24:27;101780.56;;;3.26;74.70
51603;BME280;37954;51.980;5.850;2023-04-27T04:28:38;101771.28;;;3.30;74.59
51603;BME280;37954;51.980;5.850;2023-04-27T04:32:50;101775.44;;;3.33;74.80
51603;BME280;37954;51.980;5.850;2023-04-27T04:37:02;101762.88;;;3.35;74.74
51603;BME280;37954;51.980;5.850;2023-04-27T04:41:15;101769.84;;;3.36;74.70
51603;BME280;37954;51.980;5.850;2023-04-27T04:45:26;101784.56;;;3.48;74.71
51603;BME280;37954;51.980;5.850;2023-04-27T04:49:40;101790.97;;;3.55;74.65
51603;BME280;37954;51.980;5.850;2023-04-27T04:53:52;101790.03;;;3.64;74.75
51603;BME280;37954;51.980;5.850;2023-04-27T04:58:03;101788.97;;;3.75;74.90
51603;BME280;37954;51.980;5.850;2023-04-27T05:02:15;101793.75;;;3.89;74.77
51603;BME280;37954;51.980;5.850;2023-04-27T05:06:27;101788.94;;;4.10;75.11
51603;BME280;37954;51.980;5.850;2023-04-27T05:10:39;101794.41;;;4.61;75.44
51603;BME280;37954;51.980;5.850;2023-04-27T05:14:51;101790.38;;;5.41;75.43
51603;BME280;37954;51.980;5.850;2023-04-27T05:19:03;101798.38;;;7.02;74.88
51603;BME280;37954;51.980;5.850;2023-04-27T05:23:16;101777.28;;;8.58;71.67
51603;BME280;37954;51.980;5.850;2023-04-27T05:27:28;101786.34;;;10.01;70.10
51603;BME280;37954;51.980;5.850;2023-04-27T05:31:39;101794.06;;;11.14;66.48
51603;BME280;37954;51.980;5.850;2023-04-27T05:35:51;101789.75;;;12.01;64.09
51603;BME280;37954;51.980;5.850;2023-04-27T05:40:03;101797.94;;;12.65;60.46
51603;BME280;37954;51.980;5.850;2023-04-27T05:44:19;101803.34;;;13.36;58.32
51603;BME280;37954;51.980;5.850;2023-04-27T05:48:31;101811.84;;;14.03;56.31
51603;BME280;37954;51.980;5.850;2023-04-27T05:52:43;101812.47;;;14.54;53.36
51603;BME280;37954;51.980;5.850;2023-04-27T05:56:54;101812.56;;;15.03;51.46
51603;BME280;37954;51.980;5.850;2023-04-27T06:01:06;101818.44;;;15.48;49.44
51603;BME280;37954;51.980;5.850;2023-04-27T06:05:18;101820.75;;;15.92;48.24
51603;BME280;37954;51.980;5.850;2023-04-27T06:09:30;101813.25;;;16.41;46.16
51603;BME280;37954;51.980;5.850;2023-04-27T06:13:41;101810.81;;;16.75;45.38
51603;BME280;37954;51.980;5.850;2023-04-27T06:17:53;101812.63;;;17.09;43.63
51603;BME280;37954;51.980;5.850;2023-04-27T06:22:05;101826.50;;;17.24;42.60
51603;BME280;37954;51.980;5.850;2023-04-27T06:26:17;101812.69;;;17.66;41.93
51603;BME280;37954;51.980;5.850;2023-04-27T06:30:28;101813.38;;;17.90;41.05
51603;BME280;37954;51.980;5.850;2023-04-27T06:34:40;101800.75;;;17.84;40.12
51603;BME280;37954;51.980;5.850;2023-04-27T06:38:52;101807.69;;;17.91;39.77
51603;BME280;37954;51.980;5.850;2023-04-27T06:43:06;101813.94;;;17.92;38.41
51603;BME280;37954;51.980;5.850;2023-04-27T06:47:18;101810.91;;;18.05;37.92
51603;BME280;37954;51.980;5.850;2023-04-27T06:51:30;101817.06;;;18.51;37.70
51603;BME280;37954;51.980;5.850;2023-04-27T06:55:42;101809.94;;;19.05;36.01
51603;BME280;37954;51.980;5.850;2023-04-27T06:59:57;101814.44;;;19.38;35.44
51603;BME280;37954;51.980;5.850;2023-04-27T07:04:09;101808.41;;;19.36;34.63
51603;BME280;37954;51.980;5.850;2023-04-27T07:08:20;101803.63;;;19.48;34.24
51603;BME280;37954;51.980;5.850;2023-04-27T07:12:32;101810.97;;;19.69;33.78
51603;BME280;37954;51.980;5.850;2023-04-27T07:16:44;101816.88;;;19.88;33.49
51603;BME280;37954;51.980;5.850;2023-04-27T07:20:57;101824.81;;;20.22;32.84
51603;BME280;37954;51.980;5.850;2023-04-27T07:25:08;101821.06;;;20.70;32.41
51603;BME280;37954;51.980;5.850;2023-04-27T07:29:22;101829.03;;;21.34;31.73
51603;BME280;37954;51.980;5.850;2023-04-27T07:33:38;101826.63;;;21.52;30.84
51603;BME280;37954;51.980;5.850;2023-04-27T07:37:49;101847.72;;;21.62;30.14
51603;BME280;37954;51.980;5.850;2023-04-27T07:42:02;101838.63;;;21.41;29.98
51603;BME280;37954;51.980;5.850;2023-04-27T07:46:14;101839.44;;;21.37;29.40
51603;BME280;37954;51.980;5.850;2023-04-27T07:50:28;101833.28;;;21.14;29.11
51603;BME280;37954;51.980;5.850;2023-04-27T07:54:40;101823.56;;;21.29;28.88
51603;BME280;37954;51.980;5.850;2023-04-27T07:58:52;101830.16;;;21.48;29.22
51603;BME280;37954;51.980;5.850;2023-04-27T08:03:03;101811.59;;;21.55;28.47
51603;BME280;37954;51.980;5.850;2023-04-27T08:07:16;101811.00;;;21.48;28.03
51603;BME280;37954;51.980;5.850;2023-04-27T08:11:28;101822.25;;;21.46;28.07
51603;BME280;37954;51.980;5.850;2023-04-27T08:15:40;101831.28;;;21.57;27.43
51603;BME280;37954;51.980;5.850;2023-04-27T08:19:52;101823.66;;;21.84;27.50
51603;BME280;37954;51.980;5.850;2023-04-27T08:24:04;101820.41;;;21.93;27.23
51603;BME280;37954;51.980;5.850;2023-04-27T08:28:16;101817.94;;;21.96;27.59
51603;BME280;37954;51.980;5.850;2023-04-27T08:32:28;101817.06;;;21.70;26.71
51603;BME280;37954;51.980;5.850;2023-04-27T08:36:40;101823.75;;;21.17;26.78
51603;BME280;37954;51.980;5.850;2023-04-27T08:40:51;101824.97;;;20.84;27.06
51603;BME280;37954;51.980;5.850;2023-04-27T08:45:05;101835.66;;;20.48;27.96
51603;BME280;37954;51.980;5.850;2023-04-27T08:49:18;101820.63;;;20.41;28.23
51603;BME280;37954;51.980;5.850;2023-04-27T08:53:31;101801.59;;;20.56;27.63
51603;BME280;37954;51.980;5.850;2023-04-27T08:57:56;101814.31;;;20.88;27.66
51603;BME280;37954;51.980;5.850;2023-04-27T09:02:20;101819.28;;;20.96;27.41
51603;BME280;37954;51.980;5.850;2023-04-27T09:06:34;101810.47;;;21.41;27.24
51603;BME280;37954;51.980;5.850;2023-04-27T09:10:47;101804.25;;;21.76;27.20
51603;BME280;37954;51.980;5.850;2023-04-27T09:15:01;101818.91;;;21.29;27.13
51603;BME280;37954;51.980;5.850;2023-04-27T09:19:23;101807.13;;;21.24;27.71
51603;BME280;37954;51.980;5.850;2023-04-27T09:23:36;101811.91;;;21.79;27.34
51603;BME280;37954;51.980;5.850;2023-04-27T09:27:48;101810.28;;;22.03;27.48
51603;BME280;37954;51.980;5.850;2023-04-27T09:32:00;101807.28;;;22.20;26.90
51603;BME280;37954;51.980;5.850;2023-04-27T09:36:12;101794.66;;;22.34;26.86
51603;BME280;37954;51.980;5.850;2023-04-27T09:40:26;101792.16;;;22.63;26.06
51603;BME280;37954;51.980;5.850;2023-04-27T09:44:41;101778.03;;;23.10;25.78
51603;BME280;37954;51.980;5.850;2023-04-27T09:48:54;101790.34;;;23.18;25.17
51603;BME280;37954;51.980;5.850;2023-04-27T09:53:12;101792.00;;;23.09;25.11
51603;BME280;37954;51.980;5.850;2023-04-27T09:57:35;101784.34;;;23.06;25.66
51603;BME280;37954;51.980;5.850;2023-04-27T10:01:50;101782.19;;;22.98;25.26
51603;BME280;37954;51.980;5.850;2023-04-27T10:10:49;101787.94;;;23.50;25.12
51603;BME280;37954;51.980;5.850;2023-04-27T10:15:13;101783.53;;;23.93;24.16
51603;BME280;37954;51.980;5.850;2023-04-27T10:19:25;101776.06;;;23.65;24.58
51603;BME280;37954;51.980;5.850;2023-04-27T10:23:45;101782.75;;;23.49;23.82
51603;BME280;37954;51.980;5.850;2023-04-27T10:28:00;101778.69;;;23.80;23.47
51603;BME280;37954;51.980;5.850;2023-04-27T10:32:24;101787.56;;;24.06;23.12
51603;BME280;37954;51.980;5.850;2023-04-27T10:36:39;101786.47;;;24.02;23.54
51603;BME280;37954;51.980;5.850;2023-04-27T10:40:56;101779.81;;;23.79;23.89
51603;BME280;37954;51.980;5.850;2023-04-27T10:45:10;101777.72;;;23.66;23.53
51603;BME280;37954;51.980;5.850;2023-04-27T10:49:23;101774.97;;;23.66;23.31
51603;BME280;37954;51.980;5.850;2023-04-27T10:53:38;101778.13;;;23.39;23.35
51603;BME280;37954;51.980;5.850;2023-04-27T10:57:51;101772.69;;;23.34;23.53
51603;BME280;37954;51.980;5.850;2023-04-27T11:02:03;101767.78;;;23.26;23.75
51603;BME280;37954;51.980;5.850;2023-04-27T11:06:15;101763.84;;;23.42;23.40
51603;BME280;37954;51.980;5.850;2023-04-27T11:10:27;101752.25;;;23.55;23.13
51603;BME280;37954;51.980;5.850;2023-04-27T11:14:40;101754.22;;;23.55;22.98
51603;BME280;37954;51.980;5.850;2023-04-27T11:18:52;101762.34;;;23.99;23.35
51603;BME280;37954;51.980;5.850;2023-04-27T11:23:04;101749.13;;;24.35;22.96
51603;BME280;37954;51.980;5.850;2023-04-27T11:27:16;101737.97;;;24.21;22.77
51603;BME280;37954;51.980;5.850;2023-04-27T11:31:44;101729.31;;;24.38;22.69
51603;BME280;37954;51.980;5.850;2023-04-27T11:36:00;101724.44;;;24.30;22.76
51603;BME280;37954;51.980;5.850;2023-04-27T11:40:16;101727.81;;;24.22;22.37
51603;BME280;37954;51.980;5.850;2023-04-27T11:44:28;101710.22;;;23.65;22.83
51603;BME280;37954;51.980;5.850;2023-04-27T11:48:40;101711.75;;;23.76;23.56
51603;BME280;37954;51.980;5.850;2023-04-27T11:52:51;101711.94;;;23.56;22.88
51603;BME280;37954;51.980;5.850;2023-04-27T11:57:04;101708.53;;;23.69;23.28
51603;BME280;37954;51.980;5.850;2023-04-27T12:01:16;101700.88;;;23.27;23.76
51603;BME280;37954;51.980;5.850;2023-04-27T12:05:49;101699.06;;;23.12;24.08
51603;BME280;37954;51.980;5.850;2023-04-27T12:10:01;101703.28;;;22.89;24.27
51603;BME280;37954;51.980;5.850;2023-04-27T12:14:12;101696.44;;;22.87;24.39
51603;BME280;37954;51.980;5.850;2023-04-27T12:18:24;101696.34;;;22.38;23.97
51603;BME280;37954;51.980;5.850;2023-04-27T12:22:36;101691.25;;;21.80;23.27
51603;BME280;37954;51.980;5.850;2023-04-27T12:26:48;101696.75;;;21.45;23.71
51603;BME280;37954;51.980;5.850;2023-04-27T12:31:02;101690.06;;;20.95;23.58
51603;BME280;37954;51.980;5.850;2023-04-27T12:35:15;101675.44;;;20.54;24.10
51603;BME280;37954;51.980;5.850;2023-04-27T12:39:26;101683.00;;;20.37;24.83
51603;BME280;37954;51.980;5.850;2023-04-27T12:43:38;101672.72;;;20.07;25.64
51603;BME280;37954;51.980;5.850;2023-04-27T12:47:51;101667.13;;;19.50;25.45
51603;BME280;37954;51.980;5.850;2023-04-27T12:52:14;101674.31;;;19.07;26.44
51603;BME280;37954;51.980;5.850;2023-04-27T12:56:27;101669.88;;;18.74;27.04
51603;BME280;37954;51.980;5.850;2023-04-27T13:00:39;101653.81;;;18.51;27.03
51603;BME280;37954;51.980;5.850;2023-04-27T13:04:52;101668.59;;;18.38;27.86
51603;BME280;37954;51.980;5.850;2023-04-27T13:09:04;101655.81;;;18.38;27.96
51603;BME280;37954;51.980;5.850;2023-04-27T13:13:16;101664.59;;;18.24;27.60
51603;BME280;37954;51.980;5.850;2023-04-27T13:17:28;101657.53;;;18.06;27.84
51603;BME280;37954;51.980;5.850;2023-04-27T13:21:40;101657.75;;;17.99;27.79
51603;BME280;37954;51.980;5.850;2023-04-27T13:25:51;101653.19;;;18.05;28.01
51603;BME280;37954;51.980;5.850;2023-04-27T13:30:04;101655.31;;;18.03;28.75
51603;BME280;37954;51.980;5.850;2023-04-27T13:34:16;101653.34;;;18.15;28.84
51603;BME280;37954;51.980;5.850;2023-04-27T13:38:29;101646.75;;;18.11;28.33
51603;BME280;37954;51.980;5.850;2023-04-27T13:42:41;101638.91;;;18.15;28.71
51603;BME280;37954;51.980;5.850;2023-04-27T13:46:52;101621.38;;;18.27;28.61
51603;BME280;37954;51.980;5.850;2023-04-27T13:51:04;101612.22;;;18.12;28.47
51603;BME280;37954;51.980;5.850;2023-04-27T13:55:16;101611.81;;;18.03;28.40
51603;BME280;37954;51.980;5.850;2023-04-27T13:59:28;101624.03;;;18.00;28.64
51603;BME280;37954;51.980;5.850;2023-04-27T14:03:40;101608.19;;;17.76;28.79
51603;BME280;37954;51.980;5.850;2023-04-27T14:07:54;101606.28;;;17.76;29.16
51603;BME280;37954;51.980;5.850;2023-04-27T14:12:06;101619.34;;;17.96;28.93
51603;BME280;37954;51.980;5.850;2023-04-27T14:16:19;101605.22;;;17.77;28.52
51603;BME280;37954;51.980;5.850;2023-04-27T14:20:31;101596.31;;;17.82;29.20
51603;BME280;37954;51.980;5.850;2023-04-27T14:24:43;101594.66;;;17.81;28.45
51603;BME280;37954;51.980;5.850;2023-04-27T14:28:55;101583.47;;;17.77;28.61
51603;BME280;37954;51.980;5.850;2023-04-27T14:33:23;101587.41;;;18.08;28.76
51603;BME280;37954;51.980;5.850;2023-04-27T14:37:35;101570.09;;;17.92;29.56
51603;BME280;37954;51.980;5.850;2023-04-27T14:41:47;101562.22;;;17.74;29.49
51603;BME280;37954;51.980;5.850;2023-04-27T14:45:58;101574.75;;;17.75;29.30
51603;BME280;37954;51.980;5.850;2023-04-27T14:50:30;101564.28;;;17.67;28.67
51603;BME280;37954;51.980;5.850;2023-04-27T14:54:42;101550.78;;;17.55;29.17
51603;BME280;37954;51.980;5.850;2023-04-27T14:58:54;101545.63;;;17.37;29.06
51603;BME280;37954;51.980;5.850;2023-04-27T15:03:05;101563.66;;;17.43;29.03
51603;BME280;37954;51.980;5.850;2023-04-27T15:07:17;101528.94;;;17.12;29.15
51603;BME280;37954;51.980;5.850;2023-04-27T15:11:31;101548.78;;;17.29;29.25
51603;BME280;37954;51.980;5.850;2023-04-27T15:15:43;101527.69;;;17.19;29.66
51603;BME280;37954;51.980;5.850;2023-04-27T15:19:57;101537.31;;;17.27;30.01
51603;BME280;37954;51.980;5.850;2023-04-27T15:24:09;101540.09;;;17.15;29.83
51603;BME280;37954;51.980;5.850;2023-04-27T15:28:21;101523.50;;;16.95;29.77
51603;BME280;37954;51.980;5.850;2023-04-27T15:32:33;101525.88;;;16.91;30.34
51603;BME280;37954;51.980;5.850;2023-04-27T15:36:45;101528.28;;;16.88;30.38
51603;BME280;37954;51.980;5.850;2023-04-27T15:40:57;101520.84;;;16.83;30.87
51603;BME280;37954;51.980;5.850;2023-04-27T15:45:09;101506.22;;;16.67;30.33
51603;BME280;37954;51.980;5.850;2023-04-27T15:49:20;101508.97;;;16.56;30.58
51603;BME280;37954;51.980;5.850;2023-04-27T15:53:32;101509.28;;;16.43;31.13
51603;BME280;37954;51.980;5.850;2023-04-27T15:57:44;101507.88;;;16.40;31.32
51603;BME280;37954;51.980;5.850;2023-04-27T16:01:56;101504.16;;;16.46;31.31
51603;BME280;37954;51.980;5.850;2023-04-27T16:06:08;101492.56;;;16.34;31.26
51603;BME280;37954;51.980;5.850;2023-04-27T16:10:19;101485.97;;;16.30;31.01
51603;BME280;37954;51.980;5.850;2023-04-27T16:14:31;101477.00;;;16.29;31.23
51603;BME280;37954;51.980;5.850;2023-04-27T16:18:44;101461.97;;;16.22;31.43
51603;BME280;37954;51.980;5.850;2023-04-27T16:27:09;101458.75;;;16.08;31.81
51603;BME280;37954;51.980;5.850;2023-04-27T16:31:21;101449.72;;;15.91;31.78
51603;BME280;37954;51.980;5.850;2023-04-27T16:35:33;101457.28;;;15.89;31.84
51603;BME280;37954;51.980;5.850;2023-04-27T16:39:45;101449.91;;;15.73;31.78
51603;BME280;37954;51.980;5.850;2023-04-27T16:43:57;101436.84;;;15.70;32.39
51603;BME280;37954;51.980;5.850;2023-04-27T16:48:09;101445.53;;;15.72;32.69
51603;BME280;37954;51.980;5.850;2023-04-27T16:52:21;101441.44;;;15.46;32.75
51603;BME280;37954;51.980;5.850;2023-04-27T16:56:34;101434.63;;;15.31;33.12
51603;BME280;37954;51.980;5.850;2023-04-27T17:00:46;101422.66;;;15.16;33.13
51603;BME280;37954;51.980;5.850;2023-04-27T17:04:57;101401.13;;;14.97;33.76
51603;BME280;37954;51.980;5.850;2023-04-27T17:09:11;101387.84;;;14.84;34.10
51603;BME280;37954;51.980;5.850;2023-04-27T17:13:23;101397.72;;;14.90;34.36
51603;BME280;37954;51.980;5.850;2023-04-27T17:17:35;101406.78;;;14.96;34.30
51603;BME280;37954;51.980;5.850;2023-04-27T17:21:47;101396.31;;;14.88;34.45
51603;BME280;37954;51.980;5.850;2023-04-27T17:25:59;101371.38;;;14.74;34.49
51603;BME280;37954;51.980;5.850;2023-04-27T17:30:10;101394.69;;;14.87;34.62
51603;BME280;37954;51.980;5.850;2023-04-27T17:34:22;101389.84;;;14.77;34.52
51603;BME280;37954;51.980;5.850;2023-04-27T17:38:34;101386.09;;;14.67;34.89
51603;BME280;37954;51.980;5.850;2023-04-27T17:42:46;101396.16;;;14.59;35.42
51603;BME280;37954;51.980;5.850;2023-04-27T17:46:58;101413.00;;;14.61;35.53
51603;BME280;37954;51.980;5.850;2023-04-27T17:51:10;101387.19;;;14.36;35.65
51603;BME280;37954;51.980;5.850;2023-04-27T17:55:22;101404.75;;;14.45;35.62
51603;BME280;37954;51.980;5.850;2023-04-27T17:59:35;101396.13;;;14.36;35.39
51603;BME280;37954;51.980;5.850;2023-04-27T18:03:47;101398.19;;;14.22;35.52
51603;BME280;37954;51.980;5.850;2023-04-27T18:08:00;101404.88;;;14.20;36.05
51603;BME280;37954;51.980;5.850;2023-04-27T18:12:12;101386.97;;;13.96;35.92
51603;BME280;37954;51.980;5.850;2023-04-27T18:16:24;101386.44;;;13.87;36.00
51603;BME280;37954;51.980;5.850;2023-04-27T18:20:36;101388.91;;;13.88;36.45
51603;BME280;37954;51.980;5.850;2023-04-27T18:24:47;101386.22;;;13.88;36.88
51603;BME280;37954;51.980;5.850;2023-04-27T18:28:59;101380.47;;;13.85;36.90
51603;BME280;37954;51.980;5.850;2023-04-27T18:33:11;101364.34;;;13.78;36.89
51603;BME280;37954;51.980;5.850;2023-04-27T18:37:23;101358.31;;;13.65;36.76
51603;BME280;37954;51.980;5.850;2023-04-27T18:41:34;101368.72;;;13.61;37.00
51603;BME280;37954;51.980;5.850;2023-04-27T18:45:46;101366.94;;;13.55;37.35
51603;BME280;37954;51.980;5.850;2023-04-27T18:49:58;101383.28;;;13.60;37.31
51603;BME280;37954;51.980;5.850;2023-04-27T18:54:10;101389.81;;;13.52;37.73
51603;BME280;37954;51.980;5.850;2023-04-27T18:58:22;101383.97;;;13.37;37.70
51603;BME280;37954;51.980;5.850;2023-04-27T19:02:34;101378.91;;;13.29;37.59
51603;BME280;37954;51.980;5.850;2023-04-27T19:06:46;101377.75;;;13.18;37.46
51603;BME280;37954;51.980;5.850;2023-04-27T19:11:00;101378.34;;;13.20;37.91
51603;BME280;37954;51.980;5.850;2023-04-27T19:15:12;101368.38;;;13.21;38.28
51603;BME280;37954;51.980;5.850;2023-04-27T19:19:24;101357.94;;;13.06;38.40
51603;BME280;37954;51.980;5.850;2023-04-27T19:23:37;101383.53;;;13.22;38.55
51603;BME280;37954;51.980;5.850;2023-04-27T19:27:49;101378.81;;;13.17;38.74
51603;BME280;37954;51.980;5.850;2023-04-27T19:32:01;101372.63;;;13.10;38.42
51603;BME280;37954;51.980;5.850;2023-04-27T19:36:12;101356.97;;;13.01;38.71
51603;BME280;37954;51.980;5.850;2023-04-27T19:40:24;101330.59;;;12.84;39.03
51603;BME280;37954;51.980;5.850;2023-04-27T19:44:36;101356.38;;;12.99;39.09
51603;BME280;37954;51.980;5.850;2023-04-27T19:48:48;101371.97;;;12.97;38.93
51603;BME280;37954;51.980;5.850;2023-04-27T19:52:59;101366.19;;;12.93;39.17
51603;BME280;37954;51.980;5.850;2023-04-27T19:57:12;101352.38;;;12.83;39.36
51603;BME280;37954;51.980;5.850;2023-04-27T20:01:25;101349.69;;;12.83;39.33
51603;BME280;37954;51.980;5.850;2023-04-27T20:05:37;101359.63;;;12.82;39.58
51603;BME280;37954;51.980;5.850;2023-04-27T20:09:49;101352.59;;;12.81;39.58
51603;BME280;37954;51.980;5.850;2023-04-27T20:14:01;101351.63;;;12.76;39.65
51603;BME280;37954;51.980;5.850;2023-04-27T20:18:13;101351.84;;;12.74;39.80
51603;BME280;37954;51.980;5.850;2023-04-27T20:22:25;101367.97;;;12.81;39.82
51603;BME280;37954;51.980;5.850;2023-04-27T20:26:37;101339.34;;;12.62;39.88
51603;BME280;37954;51.980;5.850;2023-04-27T20:30:49;101328.81;;;12.53;39.61
51603;BME280;37954;51.980;5.850;2023-04-27T20:35:01;101346.81;;;12.60;39.98
51603;BME280;37954;51.980;5.850;2023-04-27T20:39:15;101314.00;;;12.44;40.10
51603;BME280;37954;51.980;5.850;2023-04-27T20:43:27;101344.78;;;12.55;40.25
51603;BME280;37954;51.980;5.850;2023-04-27T20:47:39;101298.75;;;12.32;40.44
51603;BME280;37954;51.980;5.850;2023-04-27T20:51:51;101300.41;;;12.33;40.70
51603;BME280;37954;51.980;5.850;2023-04-27T20:56:03;101268.88;;;12.15;40.72
51603;BME280;37954;51.980;5.850;2023-04-27T21:00:15;101309.47;;;12.38;41.19
51603;BME280;37954;51.980;5.850;2023-04-27T21:04:29;101295.44;;;12.30;40.92
51603;BME280;37954;51.980;5.850;2023-04-27T21:08:41;101289.78;;;12.13;41.24
51603;BME280;37954;51.980;5.850;2023-04-27T21:12:53;101266.69;;;12.05;41.27
51603;BME280;37954;51.980;5.850;2023-04-27T21:17:05;101266.13;;;11.97;41.68
51603;BME280;37954;51.980;5.850;2023-04-27T21:21:17;101262.22;;;11.93;41.54
51603;BME280;37954;51.980;5.850;2023-04-27T21:25:28;101271.97;;;11.94;41.78
51603;BME280;37954;51.980;5.850;2023-04-27T21:29:40;101270.91;;;11.95;41.55
51603;BME280;37954;51.980;5.850;2023-04-27T21:33:52;101259.38;;;11.88;41.71
51603;BME280;37954;51.980;5.850;2023-04-27T21:38:04;101264.09;;;11.92;41.86
51603;BME280;37954;51.980;5.850;2023-04-27T21:42:16;101240.09;;;11.91;41.95
51603;BME280;37954;51.980;5.850;2023-04-27T21:46:28;101245.88;;;11.94;41.96
51603;BME280;37954;51.980;5.850;2023-04-27T21:50:40;101221.28;;;11.84;42.23
51603;BME280;37954;51.980;5.850;2023-04-27T21:54:52;101207.22;;;11.82;42.28
51603;BME280;37954;51.980;5.850;2023-04-27T21:59:03;101210.59;;;11.77;42.48
51603;BME280;37954;51.980;5.850;2023-04-27T22:03:15;101214.66;;;11.87;42.88
51603;BME280;37954;51.980;5.850;2023-04-27T22:07:28;101172.00;;;11.59;43.21
51603;BME280;37954;51.980;5.850;2023-04-27T22:11:39;101187.41;;;11.76;43.01
51603;BME280;37954;51.980;5.850;2023-04-27T22:15:51;101155.28;;;11.50;43.26